createdAt,value
2023-01-15T08:22:09.354Z,8.18
2023-01-15T08:24:38.555Z,6.80
2023-01-15T08:27:07.782Z,5.47
2023-01-15T08:29:36.878Z,8.68
2023-01-15T08:32:06.298Z,5.60
2023-01-15T08:34:35.437Z,6.38
2023-01-15T08:37:04.583Z,6.50
2023-01-15T08:39:35.394Z,5.63
2023-01-15T08:42:04.638Z,4.35
2023-01-15T08:44:33.783Z,8.75
2023-01-15T08:47:02.912Z,11.60
2023-01-15T08:49:32.057Z,10.70
2023-01-15T08:52:01.416Z,8.52
2023-01-15T08:54:30.624Z,14.50
2023-01-15T08:57:01.951Z,13.63
2023-01-15T08:59:31.101Z,15.07
2023-01-15T09:02:00.354Z,8.93
2023-01-15T09:04:29.688Z,9.80
2023-01-15T09:06:58.956Z,8.05
2023-01-15T09:09:28.111Z,5.80
2023-01-15T09:11:57.827Z,9.32
2023-01-15T09:14:57.910Z,4.35
2023-01-15T09:17:17.519Z,9.85
2023-01-15T09:19:46.787Z,5.75
2023-01-15T09:22:16.105Z,8.25
2023-01-15T09:24:45.209Z,7.78
2023-01-15T09:27:14.714Z,9.15
2023-01-15T09:29:45.402Z,6.93
2023-01-15T09:32:14.943Z,7.25
2023-01-15T09:34:44.069Z,12.20
2023-01-15T09:37:13.227Z,10.15
2023-01-15T09:39:42.778Z,9.82
2023-01-15T09:42:25.942Z,8.40
2023-01-15T09:45:12.522Z,7.32
2023-01-15T09:47:48.294Z,6.50
2023-01-15T09:50:33.493Z,8.90
2023-01-15T09:53:16.124Z,12.52
2023-01-15T09:55:49.327Z,8.57
2023-01-15T09:58:21.852Z,7.18
2023-01-15T10:00:53.867Z,5.63
2023-01-15T10:03:31.694Z,7.95
2023-01-15T10:06:09.589Z,5.30
2023-01-15T10:08:42.612Z,8.00
2023-01-15T10:11:51.121Z,11.52
2023-01-15T10:14:39.654Z,8.05
2023-01-15T10:17:21.207Z,10.38
2023-01-15T10:19:50.792Z,9.10
2023-01-15T10:22:35.427Z,7.28
2023-01-15T10:25:11.469Z,9.10
2023-01-15T10:27:42.770Z,8.05
2023-01-15T10:30:18.568Z,7.68
2023-01-15T10:33:02.022Z,5.75
2023-01-15T10:35:43.300Z,6.60
2023-01-15T10:38:20.786Z,12.00
2023-01-15T10:41:14.786Z,13.68
2023-01-15T10:43:52.968Z,9.65
2023-01-15T10:46:27.411Z,7.35
2023-01-15T10:49:01.765Z,10.40
2023-01-15T10:51:37.238Z,9.98
2023-01-15T10:54:12.955Z,11.68
2023-01-15T10:56:46.949Z,7.63
2023-01-15T10:59:22.595Z,10.13
2023-01-15T11:01:53.651Z,10.73
2023-01-15T11:04:25.481Z,10.43
2023-01-15T11:06:54.560Z,7.13
2023-01-15T11:09:31.459Z,11.38
2023-01-15T11:12:31.919Z,9.48
2023-01-15T11:15:18.023Z,14.30
2023-01-15T11:18:05.836Z,7.07
2023-01-15T11:20:38.277Z,8.40
2023-01-15T11:23:13.438Z,8.80
2023-01-15T11:25:51.136Z,9.63
2023-01-15T11:28:21.465Z,11.43
2023-01-15T11:30:57.065Z,7.22
2023-01-15T11:33:28.254Z,12.63
2023-01-15T11:36:00.903Z,10.45
2023-01-15T11:38:31.463Z,15.65
2023-01-15T11:41:02.569Z,16.33
2023-01-15T11:43:49.596Z,19.85
2023-01-15T11:46:48.010Z,17.50
2023-01-15T11:49:38.218Z,19.00
2023-01-15T11:52:11.723Z,16.42
2023-01-15T11:54:44.180Z,23.63
2023-01-15T11:57:13.814Z,28.30
2023-01-15T11:59:50.230Z,25.02
2023-01-15T12:02:30.464Z,17.52
2023-01-15T12:05:02.832Z,17.63
2023-01-15T12:07:33.589Z,19.10
2023-01-15T12:10:22.205Z,11.73
2023-01-15T12:13:05.859Z,13.35
2023-01-15T12:15:46.316Z,13.30
2023-01-15T12:18:49.205Z,10.07
2023-01-15T12:21:48.334Z,11.80
2023-01-15T12:24:52.000Z,7.00
2023-01-15T12:27:49.806Z,11.75
2023-01-15T12:30:29.425Z,8.57
2023-01-15T12:33:08.947Z,8.43
2023-01-15T12:35:43.145Z,13.10
2023-01-15T12:38:20.071Z,11.18
2023-01-15T12:40:56.086Z,10.98
2023-01-15T12:46:17.457Z,8.63
2023-01-15T12:48:54.839Z,14.23
2023-01-15T12:51:32.172Z,9.98
2023-01-15T12:54:05.536Z,13.98
2023-01-15T12:56:49.983Z,12.10
2023-01-15T12:59:24.828Z,9.90
2023-01-15T13:02:03.413Z,17.83
2023-01-15T13:04:39.554Z,17.77
2023-01-15T13:07:19.032Z,9.93
2023-01-15T13:09:55.496Z,10.98
2023-01-15T13:12:27.351Z,9.32
2023-01-15T13:14:56.415Z,11.25
2023-01-15T13:17:35.744Z,10.15
2023-01-15T13:20:20.972Z,11.40
2023-01-15T13:22:56.815Z,7.65
2023-01-15T13:25:36.216Z,9.82
2023-01-15T13:28:21.723Z,11.05
2023-01-15T13:31:05.470Z,10.23
2023-01-15T13:33:41.878Z,12.18
2023-01-15T13:36:16.912Z,9.90
2023-01-15T13:38:49.706Z,10.20
2023-01-15T13:41:43.132Z,11.65
2023-01-15T13:44:20.648Z,14.68
2023-01-15T13:46:59.952Z,7.50
2023-01-15T13:49:36.107Z,12.02
2023-01-15T13:52:08.292Z,10.05
2023-01-15T13:54:43.744Z,11.35
2023-01-15T13:57:25.965Z,16.42
2023-01-15T13:59:56.867Z,10.20
2023-01-15T14:02:27.940Z,15.43
2023-01-15T14:04:57.975Z,11.95
2023-01-15T14:07:38.179Z,7.55
2023-01-15T14:10:11.919Z,11.73
2023-01-15T14:12:52.511Z,12.00
2023-01-15T14:15:38.284Z,14.27
2023-01-15T14:18:28.755Z,12.57
2023-01-15T14:21:17.773Z,16.17
2023-01-15T14:24:13.451Z,14.13
2023-01-15T14:26:52.171Z,12.00
2023-01-15T14:29:55.108Z,12.02
2023-01-15T14:32:39.367Z,17.45
2023-01-15T14:35:15.395Z,14.18
2023-01-15T14:37:53.504Z,17.27
2023-01-15T14:40:25.642Z,51.75
2023-01-15T14:43:02.185Z,23.38
2023-01-15T14:45:34.261Z,22.58
2023-01-15T14:48:06.663Z,19.98
2023-01-15T14:50:39.753Z,22.02
2023-01-15T14:53:34.694Z,28.50
2023-01-15T14:56:15.384Z,23.88
2023-01-15T14:58:51.465Z,19.92
2023-01-15T15:01:38.064Z,20.90
2023-01-15T15:04:16.741Z,21.10
2023-01-15T15:06:51.772Z,20.75
2023-01-15T15:09:31.739Z,27.97
2023-01-15T15:12:22.590Z,20.05
2023-01-15T15:15:06.955Z,21.45
2023-01-15T15:17:58.513Z,18.95
2023-01-15T15:20:40.449Z,18.30
2023-01-15T15:23:17.381Z,19.45
2023-01-15T15:25:56.553Z,16.35
2023-01-15T15:28:26.161Z,16.75
2023-01-15T15:30:57.654Z,15.68
2023-01-15T15:33:29.164Z,16.58
2023-01-15T15:36:02.051Z,17.73
2023-01-15T15:38:31.378Z,18.20
2023-01-15T15:41:03.040Z,13.95
2023-01-15T15:43:58.986Z,19.40
2023-01-15T15:47:02.977Z,16.90
2023-01-15T15:49:41.196Z,19.35
2023-01-15T15:52:23.586Z,19.05
2023-01-15T15:55:00.928Z,24.98
2023-01-15T15:57:32.809Z,25.83
2023-01-15T16:00:03.304Z,29.02
2023-01-15T16:02:36.781Z,21.25
2023-01-15T16:05:22.995Z,25.15
2023-01-15T16:07:54.853Z,24.45
2023-01-15T16:10:35.055Z,28.77
2023-01-15T16:13:07.440Z,23.13
2023-01-15T16:15:40.655Z,25.38
2023-01-15T16:18:21.731Z,20.13
2023-01-15T16:20:51.124Z,25.23
2023-01-15T16:23:26.673Z,25.75
2023-01-15T16:26:02.833Z,33.20
2023-01-15T16:28:41.928Z,32.75
2023-01-15T16:31:11.827Z,31.13
2023-01-15T16:33:41.504Z,29.50
2023-01-15T16:36:11.277Z,23.67
2023-01-15T16:38:44.579Z,22.88
2023-01-15T16:41:21.782Z,19.65
2023-01-15T16:43:55.353Z,20.38
2023-01-15T16:46:27.301Z,21.10
2023-01-15T16:49:21.204Z,22.98
2023-01-15T16:51:51.010Z,42.30
2023-01-15T16:54:44.255Z,21.48
2023-01-15T16:57:35.708Z,28.45
2023-01-15T17:00:09.079Z,26.25
2023-01-15T17:02:48.490Z,17.25
2023-01-15T17:05:24.963Z,20.27
2023-01-15T17:07:56.596Z,17.65
2023-01-15T17:10:31.766Z,19.52
2023-01-15T17:13:01.366Z,19.58
2023-01-15T17:15:41.677Z,21.58
2023-01-15T17:18:31.049Z,23.95
2023-01-15T17:21:01.939Z,20.85
2023-01-15T17:23:35.667Z,12.93
2023-01-15T17:26:07.873Z,15.85
2023-01-15T17:28:37.172Z,14.38
2023-01-15T17:31:06.656Z,12.27
2023-01-15T17:33:35.903Z,16.75
2023-01-15T17:36:05.656Z,18.98
2023-01-15T17:38:34.943Z,19.38
2023-01-15T17:41:07.622Z,21.48
2023-01-15T17:43:37.024Z,14.57
2023-01-15T17:46:06.331Z,15.23
2023-01-15T17:48:35.791Z,20.60
2023-01-15T17:51:06.528Z,14.52
2023-01-15T17:53:36.531Z,18.60
2023-01-15T17:56:25.157Z,20.02
2023-01-15T17:59:11.434Z,18.88
2023-01-15T18:01:59.901Z,23.13
2023-01-15T18:04:50.710Z,16.95
2023-01-15T18:07:23.759Z,21.25
2023-01-15T18:09:54.690Z,20.45
2023-01-15T18:12:25.517Z,12.95
2023-01-15T18:14:54.773Z,18.80
2023-01-15T18:17:24.180Z,19.67
2023-01-15T18:19:55.783Z,20.75
2023-01-15T18:22:25.272Z,18.27
2023-01-15T18:24:54.648Z,19.63
2023-01-15T18:27:30.421Z,18.23
2023-01-15T18:29:59.782Z,21.00
2023-01-15T18:32:31.270Z,24.92
2023-01-15T18:35:00.975Z,19.10
2023-01-15T18:37:30.299Z,24.25
2023-01-15T18:39:59.650Z,18.83
2023-01-15T18:42:47.629Z,13.40
2023-01-15T18:45:34.029Z,14.88
2023-01-15T18:48:03.829Z,11.57
2023-01-15T18:50:33.120Z,11.23
2023-01-15T18:53:02.415Z,13.45
2023-01-15T18:55:31.675Z,9.48
2023-01-15T18:58:04.211Z,11.75
2023-01-15T19:00:33.592Z,9.98
2023-01-15T19:03:03.664Z,11.93
2023-01-15T19:05:33.068Z,9.90
2023-01-15T19:08:02.288Z,7.93
2023-01-15T19:10:31.682Z,9.43
2023-01-15T19:13:03.704Z,13.60
2023-01-15T19:15:50.077Z,11.75
2023-01-15T19:18:36.289Z,9.73
2023-01-15T19:21:09.158Z,11.95
2023-01-15T19:23:38.422Z,9.95
2023-01-15T19:26:07.947Z,8.30
2023-01-15T19:28:38.707Z,8.07
2023-01-15T19:31:27.182Z,12.05
2023-01-15T19:34:13.232Z,10.70
2023-01-15T19:36:48.257Z,9.27
2023-01-15T19:39:17.824Z,12.15
2023-01-15T19:42:04.140Z,10.70
2023-01-15T19:44:51.957Z,9.48
2023-01-15T19:47:44.013Z,6.85
2023-01-15T19:50:21.530Z,9.57
2023-01-15T19:52:52.045Z,7.88
2023-01-15T19:55:22.044Z,8.82
2023-01-15T19:57:58.617Z,9.52
2023-01-15T20:00:31.965Z,10.90
2023-01-15T20:03:01.522Z,9.52
2023-01-15T20:05:32.952Z,9.52
2023-01-15T20:08:02.244Z,10.07
2023-01-15T20:10:32.216Z,13.68
2023-01-15T20:13:18.708Z,9.93
2023-01-15T20:15:49.511Z,7.70
2023-01-15T20:18:19.272Z,8.90
2023-01-15T20:20:48.449Z,14.45
2023-01-15T20:23:17.696Z,9.68
2023-01-15T20:25:53.704Z,7.70
2023-01-15T20:28:22.986Z,7.43
2023-01-15T20:30:56.532Z,10.38
2023-01-15T20:33:26.463Z,11.95
2023-01-15T20:35:56.295Z,8.07
2023-01-15T20:38:25.784Z,14.50
2023-01-15T20:40:55.047Z,11.18
2023-01-15T20:43:41.135Z,9.95
2023-01-15T20:46:14.549Z,9.75
2023-01-15T20:49:01.030Z,8.65
2023-01-15T20:51:30.335Z,7.15
2023-01-15T20:53:59.540Z,8.35
2023-01-15T20:56:28.789Z,10.23
2023-01-15T20:58:58.807Z,9.70
2023-01-15T21:01:29.860Z,9.15
2023-01-15T21:03:59.250Z,9.38
2023-01-15T21:06:28.617Z,10.80
2023-01-15T21:08:57.828Z,7.50
2023-01-15T21:11:27.632Z,10.43
2023-01-15T21:13:57.281Z,7.63
2023-01-15T21:16:26.568Z,12.60
2023-01-15T21:18:59.461Z,9.35
2023-01-15T21:21:28.900Z,7.63
2023-01-15T21:24:00.975Z,8.63
2023-01-15T21:26:31.389Z,7.38
2023-01-15T21:29:00.694Z,12.10
2023-01-15T21:31:30.221Z,13.23
2023-01-15T21:34:01.006Z,8.77
2023-01-15T21:36:30.246Z,9.55
2023-01-15T21:38:59.501Z,12.13
2023-01-15T21:41:42.473Z,9.43
2023-01-15T21:44:33.165Z,12.25
2023-01-15T21:47:04.694Z,10.43
2023-01-15T21:49:35.863Z,8.93
2023-01-15T21:52:07.155Z,9.15
2023-01-15T21:54:36.809Z,9.15
2023-01-15T21:57:06.474Z,11.93
2023-01-15T21:59:35.731Z,11.25
2023-01-15T22:02:05.918Z,12.93
2023-01-15T22:04:38.563Z,10.35
2023-01-15T22:07:07.890Z,9.63
2023-01-15T22:09:37.250Z,9.13
2023-01-15T22:12:07.351Z,11.45
2023-01-15T22:14:36.685Z,9.90
2023-01-15T22:17:07.037Z,10.50
2023-01-15T22:19:37.858Z,7.88
2023-01-15T22:22:09.639Z,7.93
2023-01-15T22:24:40.823Z,12.32
2023-01-15T22:27:13.548Z,8.77
2023-01-15T22:29:43.650Z,12.85
2023-01-15T22:32:16.599Z,17.65
2023-01-15T22:34:49.521Z,13.32
2023-01-15T22:37:18.710Z,16.13
2023-01-15T22:39:48.114Z,13.93
2023-01-15T22:42:28.098Z,15.30
2023-01-15T22:45:00.527Z,10.82
2023-01-15T22:47:30.793Z,16.23
2023-01-15T22:50:01.622Z,12.27
2023-01-15T22:52:31.015Z,8.60
2023-01-15T22:55:00.271Z,10.45
2023-01-15T22:57:31.637Z,13.35
2023-01-15T23:00:00.922Z,10.15
2023-01-15T23:02:47.449Z,9.85
2023-01-15T23:05:18.456Z,12.95
2023-01-15T23:07:47.759Z,15.07
2023-01-15T23:10:17.601Z,11.93
2023-01-15T23:12:47.089Z,12.18
2023-01-15T23:15:16.868Z,10.23
2023-01-15T23:17:46.192Z,12.73
2023-01-15T23:20:17.543Z,18.08
2023-01-15T23:22:46.726Z,18.90
2023-01-15T23:25:16.040Z,21.60
2023-01-15T23:27:45.350Z,18.17
2023-01-15T23:30:15.324Z,20.65
2023-01-15T23:32:44.669Z,17.35
2023-01-15T23:35:13.892Z,17.42
2023-01-15T23:37:44.931Z,16.65
2023-01-15T23:40:14.933Z,16.20
2023-01-15T23:43:01.053Z,17.30
2023-01-15T23:45:47.321Z,14.55
2023-01-15T23:48:16.634Z,14.13
2023-01-15T23:50:45.859Z,22.23
2023-01-15T23:53:16.595Z,23.70
2023-01-15T23:55:45.783Z,22.50
2023-01-15T23:58:15.237Z,25.15
